• Join FlightAware (Why Join?)
  • Login
  • US Flag 
01:31AM EDT


 

Airport Tracker/Info


-or-


 

Live Flight TrackerFlight Track Log ✈ GJS3615 ✈ 19-Apr-2013 ✈ KORD - KGSO

Flight Track Log - Related Links

Times and Time Zones

All times are in EDT time to prevent confusion due to time zone crossing. See the GJS3615 flight status page for this flight to view local times or setup timezone preferences in your user account.

Time Position Orientation Groundspeed Altitude Reporting Facility
EDT Latitude Longitude Course Direction KTS MPH feet Rate Location/Type
10:27AM 41.9167 -87.8833 166° South 213 245 3,300  Level Chicago TRACON
10:28AM 41.8231 -87.7967 145° Southeast 249 287 5,000 1,140 Climbing Chicago Center
10:29AM 41.7743 -87.5872 159° South  Level Estimated
10:30AM 41.7050 -87.4811 153° Southeast  Level Estimated
10:30AM 41.7567 -87.7489 152° Southeast 270 311 6,400  Level Chicago Center
10:31AM 41.6042 -87.5216 197° South  Level FlightAware Approximate
10:31AM 41.6847 -87.7111 159° South 277 319 8,900  Level Chicago Center
10:32AM 41.5358 -87.4148 166° South  Level Estimated
10:32AM 41.6111 -87.6722 158° South 283 326 11,500  Level Chicago Center
10:33AM 41.5203 -87.6233 158° South 292 336 14,300 1,980 Climbing Chicago Center
10:34AM 41.4372 -87.5789 158° South 312 359 15,700 1,200 Climbing Chicago Center
10:35AM 41.3394 -87.5572 171° South 347 399 16,800 1,680 Climbing Chicago Center
10:36AM 41.2381 -87.5403 173° South 363 418 19,200 2,340 Climbing Chicago Center
10:37AM 41.1428 -87.5175 170° South 353 406 21,700 2,040 Climbing Chicago Center
10:38AM 41.0519 -87.4925 168° South 338 389 23,500 1,440 Climbing Chicago Center
10:39AM 40.9628 -87.4431 157° South 353 406 24,700 1,080 Climbing Chicago Center
10:40AM 40.8522 -87.3817 157° South 359 413 25,800 960 Climbing Chicago Center
10:41AM 40.7597 -87.3297 157° South 365 420 26,800 960 Climbing Chicago Center
10:42AM 40.6678 -87.2778 157° South 364 419 27,800 960 Climbing Chicago Center
10:43AM 40.5747 -87.2281 158° South 361 415 28,800 960 Climbing Chicago Center
10:44AM 40.4814 -87.1753 157° South 365 420 29,800 960 Climbing Chicago Center
10:45AM 40.3883 -87.1236 157° South 365 420 30,800 960 Climbing Chicago Center
10:46AM 40.2756 -87.0628 158° South 365 420 31,900 780 Climbing Chicago Center
10:47AM 40.1808 -87.0111 157° South 370 426 32,500 600 Climbing Chicago Center
10:48AM 40.1222 -86.9750 155° Southeast 376 433 32,900 600 Climbing Indianapolis Center
10:49AM 40.0239 -86.9217 157° South 380 437 33,500 540 Climbing Indianapolis Center
10:50AM 39.9269 -86.8536 152° Southeast 395 455 34,100 600 Climbing Indianapolis Center
10:51AM 39.8328 -86.7753 147° Southeast 398 458 34,800 660 Climbing Indianapolis Center
10:52AM 39.7389 -86.6958 147° Southeast 401 461 35,500 660 Climbing Indianapolis Center
10:53AM 39.6678 -86.5728 127° Southeast 425 489 36,200 660 Climbing Indianapolis Center
10:54AM 39.6067 -86.4306 119° Southeast 443 510 36,900 360 Climbing Indianapolis Center
10:55AM 39.5444 -86.2897 120° Southeast 446 513 37,000  Climbing Indianapolis Center
10:56AM 39.4622 -86.1217 122° Southeast 452 520 37,000  Level Indianapolis Center
10:57AM 39.3817 -85.9914 129° Southeast 458 527 37,000  Level Indianapolis Center
10:58AM 39.3044 -85.8631 128° Southeast 453 521 37,000  Level Indianapolis Center
10:59AM 39.2269 -85.7381 129° Southeast 446 513 37,000  Level Indianapolis Center
11:00AM 39.1472 -85.6103 129° Southeast 453 521 37,000  Level Indianapolis Center
11:01AM 39.0714 -85.4858 128° Southeast 442 509 37,000  Level Indianapolis Center
11:02AM 38.9928 -85.3611 129° Southeast 444 511 37,000  Level Indianapolis Center
11:03AM 38.9156 -85.2372 129° Southeast 443 510 37,000  Level Indianapolis Center
11:04AM 38.8372 -85.1150 129° Southeast 441 507 37,000  Level Indianapolis Center
11:05AM 38.7600 -84.9914 129° Southeast 441 507 37,000  Level Indianapolis Center
11:06AM 38.6678 -84.8472 129° Southeast 442 509 37,000  Level Indianapolis Center
11:07AM 38.5897 -84.7258 129° Southeast 442 509 37,000  Level Indianapolis Center
11:08AM 38.5114 -84.6056 130° Southeast 440 506 37,000  Level Indianapolis Center
11:09AM 38.4325 -84.4833 129° Southeast 442 509 37,000  Level Indianapolis Center
11:10AM 38.3547 -84.3631 129° Southeast 439 505 37,000  Level Indianapolis Center
11:11AM 38.2761 -84.2414 129° Southeast 442 509 37,000  Level Indianapolis Center
11:12AM 38.1964 -84.1189 130° Southeast 446 513 37,000  Level Indianapolis Center
11:13AM 38.1031 -83.9756 130° Southeast 450 518 37,000 -120 Level Indianapolis Center
11:14AM 38.0219 -83.8542 130° Southeast 451 519 36,800 -600 Descending Indianapolis Center
11:15AM 37.9444 -83.7283 128° Southeast 452 520 35,800 -1,320 Descending Indianapolis Center
11:16AM 37.8686 -83.6178 131° Southeast 426 490 34,200 -1,560 Descending Indianapolis Center
11:17AM 37.7964 -83.5100 130° Southeast 403 464 32,700 -1,500 Descending Indianapolis Center
11:18AM 37.7244 -83.4019 130° Southeast 401 461 31,200 -840 Descending Indianapolis Center
11:19AM 37.6503 -83.2897 130° Southeast 412 474 31,000 -120 Descending Indianapolis Center
11:21AM 37.5628 -83.1600 130° Southeast 414 476 31,000 -540 Level Indianapolis Center
11:22AM 37.4847 -83.0444 130° Southeast 426 490 30,000 -1,080 Descending Indianapolis Center
11:23AM 37.4075 -82.9292 130° Southeast 430 495 28,900 -1,200 Descending Indianapolis Center
11:24AM 37.3314 -82.8156 130° Southeast 424 488 27,600 -960 Descending Indianapolis Center
11:25AM 37.2539 -82.7033 131° Southeast 421 484 27,000 -300 Descending Indianapolis Center
11:26AM 37.1778 -82.5900 130° Southeast 420 483 27,000  Level Indianapolis Center
11:27AM 37.0989 -82.4767 131° Southeast 426 490 27,000  Level Indianapolis Center
11:28AM 37.0186 -82.3594 131° Southeast 433 498 27,000  Level Atlanta Center
11:29AM 36.9375 -82.2417 131° Southeast 441 507 27,000 -240 Level Atlanta Center
11:30AM 36.8589 -82.1267 130° Southeast 441 507 26,600 -600 Descending Atlanta Center
11:31AM 36.7817 -82.0067 129° Southeast 441 507 25,900 -660 Descending Atlanta Center
11:32AM 36.7153 -81.8997 128° Southeast 441 507 25,300 -840 Descending Atlanta Center
11:33AM 36.6422 -81.7775 127° Southeast 441 507 24,300 -1,140 Descending Atlanta Center
11:34AM 36.5669 -81.6581 128° Southeast 441 507 23,100 -1,380 Descending Atlanta Center
11:35AM 36.4914 -81.5314 127° Southeast 430 495 21,600 -1,500 Descending Atlanta Center
11:36AM 36.4222 -81.4147 126° Southeast 423 487 20,100 -1,500 Descending Atlanta Center
11:37AM 36.3575 -81.3136 128° Southeast 423 487 18,600 -1,680 Descending Atlanta Center
11:38AM 36.2903 -81.2028 127° Southeast 418 481 16,800 -1,800 Descending Atlanta Center
11:39AM 36.2275 -81.0969 126° Southeast 399 459 15,100 -1,740 Descending Atlanta Center
11:40AM 36.1728 -80.9908 123° Southeast 370 426 13,400 -1,800 Descending Atlanta Center
11:41AM 36.1547 -80.8553 99° East 383 441 11,600 -1,200 Descending Atlanta Center
11:42AM 36.1364 -80.7119 99° East 393 452 11,000 -300 Descending Atlanta Center
11:43AM 36.1200 -80.5814 99° East 383 441 11,000 -120 Level Atlanta Center
11:44AM 36.1039 -80.4511 99° East 383 441 10,800 -600 Descending Atlanta Center
11:45AM 36.0900 -80.3361 98° East 366 421 9,800 -1,200 Descending Atlanta Center
11:46AM 36.0786 -80.2314 98° East 335 386 8,400 -1,260 Descending Atlanta Center
11:47AM 36.0736 -80.1392 94° East 311 358 7,300 -720 Descending Atlanta Center
11:48AM 36.1336 -80.0592 47° Northeast 274 315 7,000 -300 Descending Atlanta Center
11:50AM 36.1000 -79.9333 28° Northeast  Level FlightAware Approximate
11:57AM 36.1013 -79.9411 28° Northeast  Level Estimated
11:58AM 36.1000 -79.9333 28° Northeast  Level FlightAware Approximate